sensor_id;sensor_type;location;lat;lon;timestamp;temperature;humidity
16128;DHT22;8168;49.036;7.690;2022-09-09T00:04:26;14.80;99.90
16128;DHT22;8168;49.036;7.690;2022-09-09T00:09:45;14.80;99.90
16128;DHT22;8168;49.036;7.690;2022-09-09T00:15:19;14.70;99.90
16128;DHT22;8168;49.036;7.690;2022-09-09T00:23:30;14.60;99.90
16128;DHT22;8168;49.036;7.690;2022-09-09T00:28:55;14.60;99.90
16128;DHT22;8168;49.036;7.690;2022-09-09T00:31:29;14.60;99.90
16128;DHT22;8168;49.036;7.690;2022-09-09T00:34:14;14.60;99.90
16128;DHT22;8168;49.036;7.690;2022-09-09T00:36:49;14.60;99.90
16128;DHT22;8168;49.036;7.690;2022-09-09T00:45:10;14.50;99.90
16128;DHT22;8168;49.036;7.690;2022-09-09T00:47:51;14.40;99.90
16128;DHT22;8168;49.036;7.690;2022-09-09T00:53:11;14.30;99.90
16128;DHT22;8168;49.036;7.690;2022-09-09T00:55:48;14.30;99.90
16128;DHT22;8168;49.036;7.690;2022-09-09T00:58:19;14.40;99.90
16128;DHT22;8168;49.036;7.690;2022-09-09T01:00:55;14.30;99.90
16128;DHT22;8168;49.036;7.690;2022-09-09T01:03:34;14.30;99.90
16128;DHT22;8168;49.036;7.690;2022-09-09T01:12:46;14.40;99.90
16128;DHT22;8168;49.036;7.690;2022-09-09T01:15:26;11.90;99.90
16128;DHT22;8168;49.036;7.690;2022-09-09T01:18:04;14.40;99.90
16128;DHT22;8168;49.036;7.690;2022-09-09T01:26:37;14.50;99.90
16128;DHT22;8168;49.036;7.690;2022-09-09T01:29:12;14.50;99.90
16128;DHT22;8168;49.036;7.690;2022-09-09T01:34:52;14.50;99.90
16128;DHT22;8168;49.036;7.690;2022-09-09T01:37:23;14.60;99.90
16128;DHT22;8168;49.036;7.690;2022-09-09T01:39:53;14.60;99.90
16128;DHT22;8168;49.036;7.690;2022-09-09T01:42:24;14.60;99.90
16128;DHT22;8168;49.036;7.690;2022-09-09T01:44:55;14.70;99.90
16128;DHT22;8168;49.036;7.690;2022-09-09T01:47:26;14.70;99.90
16128;DHT22;8168;49.036;7.690;2022-09-09T01:49:57;14.70;99.90
16128;DHT22;8168;49.036;7.690;2022-09-09T01:52:29;14.80;99.90
16128;DHT22;8168;49.036;7.690;2022-09-09T01:55:00;14.80;99.90
16128;DHT22;8168;49.036;7.690;2022-09-09T02:00:29;14.80;99.90
16128;DHT22;8168;49.036;7.690;2022-09-09T02:03:34;14.80;99.90
16128;DHT22;8168;49.036;7.690;2022-09-09T02:06:35;14.80;99.90
16128;DHT22;8168;49.036;7.690;2022-09-09T02:09:07;14.80;99.90
16128;DHT22;8168;49.036;7.690;2022-09-09T02:11:42;14.70;99.90
16128;DHT22;8168;49.036;7.690;2022-09-09T02:14:22;14.70;99.90
16128;DHT22;8168;49.036;7.690;2022-09-09T02:16:59;14.70;99.90
16128;DHT22;8168;49.036;7.690;2022-09-09T02:19:36;14.70;99.90
16128;DHT22;8168;49.036;7.690;2022-09-09T02:22:08;14.70;99.90
16128;DHT22;8168;49.036;7.690;2022-09-09T02:24:39;14.70;99.90
16128;DHT22;8168;49.036;7.690;2022-09-09T02:27:11;14.60;99.90
16128;DHT22;8168;49.036;7.690;2022-09-09T02:29:43;14.60;99.90
16128;DHT22;8168;49.036;7.690;2022-09-09T02:32:18;14.60;99.90
16128;DHT22;8168;49.036;7.690;2022-09-09T02:34:57;14.60;99.90
16128;DHT22;8168;49.036;7.690;2022-09-09T02:37:36;14.70;99.90
16128;DHT22;8168;49.036;7.690;2022-09-09T02:40:10;14.60;99.90
16128;DHT22;8168;49.036;7.690;2022-09-09T02:42:43;14.60;99.90
16128;DHT22;8168;49.036;7.690;2022-09-09T02:45:16;14.50;99.90
16128;DHT22;8168;49.036;7.690;2022-09-09T02:47:50;14.50;99.90
16128;DHT22;8168;49.036;7.690;2022-09-09T02:50:34;14.50;99.90
16128;DHT22;8168;49.036;7.690;2022-09-09T02:53:16;14.50;99.90
16128;DHT22;8168;49.036;7.690;2022-09-09T02:58:18;14.50;99.90
16128;DHT22;8168;49.036;7.690;2022-09-09T03:00:50;14.50;99.90
16128;DHT22;8168;49.036;7.690;2022-09-09T03:03:21;14.50;99.90
16128;DHT22;8168;49.036;7.690;2022-09-09T03:05:52;14.30;99.90
16128;DHT22;8168;49.036;7.690;2022-09-09T03:08:23;14.30;99.90
16128;DHT22;8168;49.036;7.690;2022-09-09T03:10:54;14.30;99.90
16128;DHT22;8168;49.036;7.690;2022-09-09T03:13:25;14.30;99.90
16128;DHT22;8168;49.036;7.690;2022-09-09T03:15:56;14.30;99.90
16128;DHT22;8168;49.036;7.690;2022-09-09T03:18:26;14.30;99.90
16128;DHT22;8168;49.036;7.690;2022-09-09T03:20:58;14.30;99.90
16128;DHT22;8168;49.036;7.690;2022-09-09T03:23:29;14.30;99.90
16128;DHT22;8168;49.036;7.690;2022-09-09T03:26:00;14.30;99.90
16128;DHT22;8168;49.036;7.690;2022-09-09T03:28:31;14.20;99.90
16128;DHT22;8168;49.036;7.690;2022-09-09T03:31:03;14.20;99.90
16128;DHT22;8168;49.036;7.690;2022-09-09T03:33:34;14.20;99.90
16128;DHT22;8168;49.036;7.690;2022-09-09T03:36:07;14.20;99.90
16128;DHT22;8168;49.036;7.690;2022-09-09T03:38:38;14.20;99.90
16128;DHT22;8168;49.036;7.690;2022-09-09T03:41:09;14.30;99.90
16128;DHT22;8168;49.036;7.690;2022-09-09T03:43:40;14.30;99.90
16128;DHT22;8168;49.036;7.690;2022-09-09T03:46:12;14.30;99.90
16128;DHT22;8168;49.036;7.690;2022-09-09T03:48:42;14.30;99.90
16128;DHT22;8168;49.036;7.690;2022-09-09T03:51:14;14.30;99.90
16128;DHT22;8168;49.036;7.690;2022-09-09T03:53:46;14.30;99.90
16128;DHT22;8168;49.036;7.690;2022-09-09T03:56:16;14.20;99.90
16128;DHT22;8168;49.036;7.690;2022-09-09T03:58:47;14.20;99.90
16128;DHT22;8168;49.036;7.690;2022-09-09T04:01:17;14.30;99.90
16128;DHT22;8168;49.036;7.690;2022-09-09T04:03:48;14.20;99.90
16128;DHT22;8168;49.036;7.690;2022-09-09T04:06:19;14.20;99.90
16128;DHT22;8168;49.036;7.690;2022-09-09T04:08:51;14.20;99.90
16128;DHT22;8168;49.036;7.690;2022-09-09T04:11:23;14.30;99.90
16128;DHT22;8168;49.036;7.690;2022-09-09T04:13:53;14.20;99.90
16128;DHT22;8168;49.036;7.690;2022-09-09T04:16:24;14.30;99.90
16128;DHT22;8168;49.036;7.690;2022-09-09T04:18:54;14.30;99.90
16128;DHT22;8168;49.036;7.690;2022-09-09T04:21:26;14.30;99.90
16128;DHT22;8168;49.036;7.690;2022-09-09T04:23:57;14.30;99.90
16128;DHT22;8168;49.036;7.690;2022-09-09T04:26:27;14.30;99.90
16128;DHT22;8168;49.036;7.690;2022-09-09T04:28:58;14.20;99.90
16128;DHT22;8168;49.036;7.690;2022-09-09T04:31:29;14.30;99.90
16128;DHT22;8168;49.036;7.690;2022-09-09T04:34:00;14.20;99.90
16128;DHT22;8168;49.036;7.690;2022-09-09T04:36:35;14.20;99.90
16128;DHT22;8168;49.036;7.690;2022-09-09T04:39:09;14.20;99.90
16128;DHT22;8168;49.036;7.690;2022-09-09T04:41:40;16.10;99.90
16128;DHT22;8168;49.036;7.690;2022-09-09T04:44:10;14.20;99.90
16128;DHT22;8168;49.036;7.690;2022-09-09T04:46:41;14.20;99.90
16128;DHT22;8168;49.036;7.690;2022-09-09T04:49:12;14.10;99.90
16128;DHT22;8168;49.036;7.690;2022-09-09T04:51:42;14.10;99.90
16128;DHT22;8168;49.036;7.690;2022-09-09T04:54:13;14.10;99.90
16128;DHT22;8168;49.036;7.690;2022-09-09T04:56:43;14.10;99.90
16128;DHT22;8168;49.036;7.690;2022-09-09T04:59:14;14.10;99.90
16128;DHT22;8168;49.036;7.690;2022-09-09T05:01:45;14.10;99.90
16128;DHT22;8168;49.036;7.690;2022-09-09T05:04:16;14.00;99.90
16128;DHT22;8168;49.036;7.690;2022-09-09T05:06:46;14.00;99.90
16128;DHT22;8168;49.036;7.690;2022-09-09T05:09:17;14.00;99.90
16128;DHT22;8168;49.036;7.690;2022-09-09T05:11:48;14.00;99.90
16128;DHT22;8168;49.036;7.690;2022-09-09T05:14:19;14.00;99.90
16128;DHT22;8168;49.036;7.690;2022-09-09T05:16:49;13.90;99.90
16128;DHT22;8168;49.036;7.690;2022-09-09T05:19:20;14.00;99.90
16128;DHT22;8168;49.036;7.690;2022-09-09T05:21:51;13.90;99.90
16128;DHT22;8168;49.036;7.690;2022-09-09T05:24:21;13.90;99.90
16128;DHT22;8168;49.036;7.690;2022-09-09T05:26:53;13.90;99.90
16128;DHT22;8168;49.036;7.690;2022-09-09T05:29:24;14.00;99.90
16128;DHT22;8168;49.036;7.690;2022-09-09T05:31:54;14.00;99.90
16128;DHT22;8168;49.036;7.690;2022-09-09T05:34:25;14.00;99.90
16128;DHT22;8168;49.036;7.690;2022-09-09T05:36:56;14.00;99.90
16128;DHT22;8168;49.036;7.690;2022-09-09T05:39:26;14.00;99.90
16128;DHT22;8168;49.036;7.690;2022-09-09T05:41:57;14.10;99.90
16128;DHT22;8168;49.036;7.690;2022-09-09T05:44:27;14.10;99.90
16128;DHT22;8168;49.036;7.690;2022-09-09T05:46:58;14.20;99.90
16128;DHT22;8168;49.036;7.690;2022-09-09T05:49:29;14.20;99.90
16128;DHT22;8168;49.036;7.690;2022-09-09T05:51:59;14.20;99.90
16128;DHT22;8168;49.036;7.690;2022-09-09T05:54:30;14.30;99.90
16128;DHT22;8168;49.036;7.690;2022-09-09T05:57:00;14.30;99.90
16128;DHT22;8168;49.036;7.690;2022-09-09T05:59:31;14.30;99.90
16128;DHT22;8168;49.036;7.690;2022-09-09T06:02:02;14.30;99.90
16128;DHT22;8168;49.036;7.690;2022-09-09T06:04:33;14.30;99.90
16128;DHT22;8168;49.036;7.690;2022-09-09T06:07:04;14.40;99.90
16128;DHT22;8168;49.036;7.690;2022-09-09T06:09:35;14.50;99.90
16128;DHT22;8168;49.036;7.690;2022-09-09T06:12:06;14.50;99.90
16128;DHT22;8168;49.036;7.690;2022-09-09T06:14:37;14.60;99.90
16128;DHT22;8168;49.036;7.690;2022-09-09T06:17:07;14.70;99.90
16128;DHT22;8168;49.036;7.690;2022-09-09T06:19:39;14.70;99.90
16128;DHT22;8168;49.036;7.690;2022-09-09T06:22:09;14.80;99.90
16128;DHT22;8168;49.036;7.690;2022-09-09T06:24:42;14.90;99.90
16128;DHT22;8168;49.036;7.690;2022-09-09T06:27:12;15.10;99.90
16128;DHT22;8168;49.036;7.690;2022-09-09T06:29:44;15.20;99.90
16128;DHT22;8168;49.036;7.690;2022-09-09T06:32:14;15.40;99.90
16128;DHT22;8168;49.036;7.690;2022-09-09T06:34:45;15.50;99.90
16128;DHT22;8168;49.036;7.690;2022-09-09T06:37:15;15.60;99.90
16128;DHT22;8168;49.036;7.690;2022-09-09T06:39:46;15.70;99.90
16128;DHT22;8168;49.036;7.690;2022-09-09T06:42:17;15.80;99.90
16128;DHT22;8168;49.036;7.690;2022-09-09T06:44:48;15.90;99.90
16128;DHT22;8168;49.036;7.690;2022-09-09T06:49:39;16.00;99.90
16128;DHT22;8168;49.036;7.690;2022-09-09T06:52:10;14.90;99.90
16128;DHT22;8168;49.036;7.690;2022-09-09T06:54:40;16.20;99.90
16128;DHT22;8168;49.036;7.690;2022-09-09T06:57:11;16.30;99.90
16128;DHT22;8168;49.036;7.690;2022-09-09T06:59:41;16.40;99.90
16128;DHT22;8168;49.036;7.690;2022-09-09T07:02:12;16.40;99.90
16128;DHT22;8168;49.036;7.690;2022-09-09T07:04:43;16.50;99.90
16128;DHT22;8168;49.036;7.690;2022-09-09T07:07:14;16.60;99.90
16128;DHT22;8168;49.036;7.690;2022-09-09T07:09:45;16.60;99.90
16128;DHT22;8168;49.036;7.690;2022-09-09T07:12:16;16.60;99.90
16128;DHT22;8168;49.036;7.690;2022-09-09T07:14:47;16.70;99.90
16128;DHT22;8168;49.036;7.690;2022-09-09T07:17:17;16.70;99.90
16128;DHT22;8168;49.036;7.690;2022-09-09T07:19:48;16.70;99.90
16128;DHT22;8168;49.036;7.690;2022-09-09T07:22:18;16.70;99.90
16128;DHT22;8168;49.036;7.690;2022-09-09T07:24:50;16.70;99.90
16128;DHT22;8168;49.036;7.690;2022-09-09T07:27:21;16.60;99.90
16128;DHT22;8168;49.036;7.690;2022-09-09T07:29:51;16.70;99.90
16128;DHT22;8168;49.036;7.690;2022-09-09T07:32:24;16.70;99.90
16128;DHT22;8168;49.036;7.690;2022-09-09T07:34:56;16.70;99.90
16128;DHT22;8168;49.036;7.690;2022-09-09T07:37:28;16.70;99.90
16128;DHT22;8168;49.036;7.690;2022-09-09T07:39:58;16.70;99.90
16128;DHT22;8168;49.036;7.690;2022-09-09T07:42:29;16.80;99.90
16128;DHT22;8168;49.036;7.690;2022-09-09T07:45:00;16.80;99.90
16128;DHT22;8168;49.036;7.690;2022-09-09T07:47:30;16.90;99.90
16128;DHT22;8168;49.036;7.690;2022-09-09T07:50:01;16.90;99.90
16128;DHT22;8168;49.036;7.690;2022-09-09T07:52:33;17.00;99.90
16128;DHT22;8168;49.036;7.690;2022-09-09T07:55:04;17.00;99.90
16128;DHT22;8168;49.036;7.690;2022-09-09T07:57:36;17.10;99.90
16128;DHT22;8168;49.036;7.690;2022-09-09T08:00:07;17.20;99.90
16128;DHT22;8168;49.036;7.690;2022-09-09T08:02:38;17.20;99.90
16128;DHT22;8168;49.036;7.690;2022-09-09T08:05:09;17.30;99.90
16128;DHT22;8168;49.036;7.690;2022-09-09T08:07:39;17.40;99.90
16128;DHT22;8168;49.036;7.690;2022-09-09T08:10:10;17.40;99.90
16128;DHT22;8168;49.036;7.690;2022-09-09T08:12:41;17.40;99.90
16128;DHT22;8168;49.036;7.690;2022-09-09T08:15:12;17.40;99.90
16128;DHT22;8168;49.036;7.690;2022-09-09T08:17:43;17.40;99.90
16128;DHT22;8168;49.036;7.690;2022-09-09T08:20:14;17.40;99.90
16128;DHT22;8168;49.036;7.690;2022-09-09T08:22:45;17.40;99.90
16128;DHT22;8168;49.036;7.690;2022-09-09T08:25:15;17.40;99.90
16128;DHT22;8168;49.036;7.690;2022-09-09T08:27:46;17.40;99.90
16128;DHT22;8168;49.036;7.690;2022-09-09T08:30:16;17.50;99.90
16128;DHT22;8168;49.036;7.690;2022-09-09T08:32:48;17.40;99.90
16128;DHT22;8168;49.036;7.690;2022-09-09T08:35:19;17.40;99.90
16128;DHT22;8168;49.036;7.690;2022-09-09T08:37:54;17.50;99.90
16128;DHT22;8168;49.036;7.690;2022-09-09T08:40:29;17.50;99.90
16128;DHT22;8168;49.036;7.690;2022-09-09T08:43:04;17.50;99.90
16128;DHT22;8168;49.036;7.690;2022-09-09T08:46:07;17.50;99.90
16128;DHT22;8168;49.036;7.690;2022-09-09T08:48:55;17.40;99.90
16128;DHT22;8168;49.036;7.690;2022-09-09T08:51:30;17.40;99.90
16128;DHT22;8168;49.036;7.690;2022-09-09T08:54:02;17.50;99.90
16128;DHT22;8168;49.036;7.690;2022-09-09T08:56:34;17.40;99.90
16128;DHT22;8168;49.036;7.690;2022-09-09T08:59:10;17.40;99.90
16128;DHT22;8168;49.036;7.690;2022-09-09T09:02:15;17.50;99.90
16128;DHT22;8168;49.036;7.690;2022-09-09T09:05:49;17.50;99.90
16128;DHT22;8168;49.036;7.690;2022-09-09T09:10:50;17.70;99.90
16128;DHT22;8168;49.036;7.690;2022-09-09T09:14:18;17.70;99.90
16128;DHT22;8168;49.036;7.690;2022-09-09T09:19:35;17.70;99.90
16128;DHT22;8168;49.036;7.690;2022-09-09T09:22:24;17.80;99.90
16128;DHT22;8168;49.036;7.690;2022-09-09T09:25:22;17.90;99.90
16128;DHT22;8168;49.036;7.690;2022-09-09T09:28:16;18.00;99.90
16128;DHT22;8168;49.036;7.690;2022-09-09T09:31:14;18.00;99.90
16128;DHT22;8168;49.036;7.690;2022-09-09T09:33:52;18.00;99.90
16128;DHT22;8168;49.036;7.690;2022-09-09T09:36:44;18.20;99.90
16128;DHT22;8168;49.036;7.690;2022-09-09T09:39:29;18.20;99.90
16128;DHT22;8168;49.036;7.690;2022-09-09T09:42:09;18.30;99.90
16128;DHT22;8168;49.036;7.690;2022-09-09T09:44:42;18.40;99.90
16128;DHT22;8168;49.036;7.690;2022-09-09T09:47:17;18.40;99.90
16128;DHT22;8168;49.036;7.690;2022-09-09T09:49:59;18.50;99.90
16128;DHT22;8168;49.036;7.690;2022-09-09T09:52:32;18.60;99.90
16128;DHT22;8168;49.036;7.690;2022-09-09T09:55:12;18.80;99.90
16128;DHT22;8168;49.036;7.690;2022-09-09T09:57:44;18.90;99.90
16128;DHT22;8168;49.036;7.690;2022-09-09T10:00:20;19.00;99.90
16128;DHT22;8168;49.036;7.690;2022-09-09T10:02:51;19.10;99.90
16128;DHT22;8168;49.036;7.690;2022-09-09T10:05:25;19.10;99.90
16128;DHT22;8168;49.036;7.690;2022-09-09T10:08:03;19.20;99.90
16128;DHT22;8168;49.036;7.690;2022-09-09T10:13:26;19.20;99.90
16128;DHT22;8168;49.036;7.690;2022-09-09T10:19:09;19.30;99.90
16128;DHT22;8168;49.036;7.690;2022-09-09T10:24:34;19.30;99.90
16128;DHT22;8168;49.036;7.690;2022-09-09T10:38:41;19.60;99.90
16128;DHT22;8168;49.036;7.690;2022-09-09T10:41:26;19.80;99.90
16128;DHT22;8168;49.036;7.690;2022-09-09T10:55:43;20.00;99.90
16128;DHT22;8168;49.036;7.690;2022-09-09T10:58:28;20.10;99.90
16128;DHT22;8168;49.036;7.690;2022-09-09T11:01:09;20.00;99.90
16128;DHT22;8168;49.036;7.690;2022-09-09T11:03:41;19.90;99.90
16128;DHT22;8168;49.036;7.690;2022-09-09T11:06:16;20.10;99.90
16128;DHT22;8168;49.036;7.690;2022-09-09T11:08:49;20.20;99.90
16128;DHT22;8168;49.036;7.690;2022-09-09T11:11:48;20.20;99.90
16128;DHT22;8168;49.036;7.690;2022-09-09T11:14:45;20.10;99.90
16128;DHT22;8168;49.036;7.690;2022-09-09T11:17:26;19.90;99.90
16128;DHT22;8168;49.036;7.690;2022-09-09T11:19:59;19.90;99.90
16128;DHT22;8168;49.036;7.690;2022-09-09T11:22:37;20.00;99.90
16128;DHT22;8168;49.036;7.690;2022-09-09T11:28:26;20.20;99.90
16128;DHT22;8168;49.036;7.690;2022-09-09T11:34:25;20.40;99.90
16128;DHT22;8168;49.036;7.690;2022-09-09T11:40:07;20.40;99.90
16128;DHT22;8168;49.036;7.690;2022-09-09T11:42:40;20.30;99.90
16128;DHT22;8168;49.036;7.690;2022-09-09T11:45:22;20.20;99.90
16128;DHT22;8168;49.036;7.690;2022-09-09T11:47:58;20.00;99.90
16128;DHT22;8168;49.036;7.690;2022-09-09T11:50:35;19.80;99.90
16128;DHT22;8168;49.036;7.690;2022-09-09T11:55:44;19.50;99.90
16128;DHT22;8168;49.036;7.690;2022-09-09T11:58:17;19.40;99.90
16128;DHT22;8168;49.036;7.690;2022-09-09T12:00:49;19.40;99.90
16128;DHT22;8168;49.036;7.690;2022-09-09T12:03:42;19.40;99.90
16128;DHT22;8168;49.036;7.690;2022-09-09T12:06:32;19.20;99.90
16128;DHT22;8168;49.036;7.690;2022-09-09T12:09:26;19.10;99.90
16128;DHT22;8168;49.036;7.690;2022-09-09T12:17:19;18.90;99.90
16128;DHT22;8168;49.036;7.690;2022-09-09T12:20:02;19.00;99.90
16128;DHT22;8168;49.036;7.690;2022-09-09T12:33:18;19.50;99.90
16128;DHT22;8168;49.036;7.690;2022-09-09T12:35:54;19.60;99.90
16128;DHT22;8168;49.036;7.690;2022-09-09T12:38:32;19.60;99.90
16128;DHT22;8168;49.036;7.690;2022-09-09T12:41:03;18.50;99.90
16128;DHT22;8168;49.036;7.690;2022-09-09T12:43:33;19.80;99.90
16128;DHT22;8168;49.036;7.690;2022-09-09T12:46:20;19.80;99.90
16128;DHT22;8168;49.036;7.690;2022-09-09T12:48:53;19.90;99.90
16128;DHT22;8168;49.036;7.690;2022-09-09T12:51:28;20.00;99.90
16128;DHT22;8168;49.036;7.690;2022-09-09T12:53:59;20.10;99.90
16128;DHT22;8168;49.036;7.690;2022-09-09T12:56:32;20.30;99.90
16128;DHT22;8168;49.036;7.690;2022-09-09T12:59:03;20.30;99.90
16128;DHT22;8168;49.036;7.690;2022-09-09T13:01:33;20.40;99.90
16128;DHT22;8168;49.036;7.690;2022-09-09T13:04:20;20.50;99.90
16128;DHT22;8168;49.036;7.690;2022-09-09T13:06:52;20.60;99.90
16128;DHT22;8168;49.036;7.690;2022-09-09T13:09:23;20.70;99.90
16128;DHT22;8168;49.036;7.690;2022-09-09T13:11:56;20.70;99.90
16128;DHT22;8168;49.036;7.690;2022-09-09T13:14:30;20.80;99.90
16128;DHT22;8168;49.036;7.690;2022-09-09T13:17:05;20.80;99.90
16128;DHT22;8168;49.036;7.690;2022-09-09T13:19:37;20.90;99.90
16128;DHT22;8168;49.036;7.690;2022-09-09T13:22:21;21.00;99.90
16128;DHT22;8168;49.036;7.690;2022-09-09T13:25:02;21.00;99.90
16128;DHT22;8168;49.036;7.690;2022-09-09T13:27:35;21.00;99.90
16128;DHT22;8168;49.036;7.690;2022-09-09T13:30:22;21.00;99.90
16128;DHT22;8168;49.036;7.690;2022-09-09T13:35:35;20.60;99.90
16128;DHT22;8168;49.036;7.690;2022-09-09T13:38:09;20.40;99.90
16128;DHT22;8168;49.036;7.690;2022-09-09T13:43:29;20.10;99.90
16128;DHT22;8168;49.036;7.690;2022-09-09T13:46:05;20.00;99.90
16128;DHT22;8168;49.036;7.690;2022-09-09T13:49:21;20.10;99.90
16128;DHT22;8168;49.036;7.690;2022-09-09T13:52:01;20.20;99.90
16128;DHT22;8168;49.036;7.690;2022-09-09T13:54:32;20.40;99.90
16128;DHT22;8168;49.036;7.690;2022-09-09T13:57:03;20.60;99.90
16128;DHT22;8168;49.036;7.690;2022-09-09T13:59:35;20.70;99.90
16128;DHT22;8168;49.036;7.690;2022-09-09T14:02:07;20.60;99.90
16128;DHT22;8168;49.036;7.690;2022-09-09T14:04:37;20.50;99.90
16128;DHT22;8168;49.036;7.690;2022-09-09T14:07:16;20.40;99.90
16128;DHT22;8168;49.036;7.690;2022-09-09T14:09:46;20.40;99.90
16128;DHT22;8168;49.036;7.690;2022-09-09T14:12:20;20.40;99.90
16128;DHT22;8168;49.036;7.690;2022-09-09T14:14:50;20.40;99.90
16128;DHT22;8168;49.036;7.690;2022-09-09T14:17:21;20.30;99.90
16128;DHT22;8168;49.036;7.690;2022-09-09T14:19:53;20.20;99.90
16128;DHT22;8168;49.036;7.690;2022-09-09T14:22:24;20.20;99.90
16128;DHT22;8168;49.036;7.690;2022-09-09T14:24:55;20.10;99.90
16128;DHT22;8168;49.036;7.690;2022-09-09T14:27:27;20.10;99.90
16128;DHT22;8168;49.036;7.690;2022-09-09T14:29:59;20.20;99.90
16128;DHT22;8168;49.036;7.690;2022-09-09T14:32:31;20.20;99.90
16128;DHT22;8168;49.036;7.690;2022-09-09T14:35:01;20.10;99.90
16128;DHT22;8168;49.036;7.690;2022-09-09T14:37:32;20.10;99.90
16128;DHT22;8168;49.036;7.690;2022-09-09T14:40:03;20.00;99.90
16128;DHT22;8168;49.036;7.690;2022-09-09T14:42:34;19.90;99.90
16128;DHT22;8168;49.036;7.690;2022-09-09T14:45:05;19.80;99.90
16128;DHT22;8168;49.036;7.690;2022-09-09T14:47:36;19.70;99.90
16128;DHT22;8168;49.036;7.690;2022-09-09T14:50:08;19.60;99.90
16128;DHT22;8168;49.036;7.690;2022-09-09T14:52:39;19.50;99.90
16128;DHT22;8168;49.036;7.690;2022-09-09T14:55:10;19.50;99.90
16128;DHT22;8168;49.036;7.690;2022-09-09T14:57:41;19.50;99.90
16128;DHT22;8168;49.036;7.690;2022-09-09T15:00:12;19.50;99.90
16128;DHT22;8168;49.036;7.690;2022-09-09T15:02:43;19.60;99.90
16128;DHT22;8168;49.036;7.690;2022-09-09T15:05:14;19.60;99.90
16128;DHT22;8168;49.036;7.690;2022-09-09T15:07:45;19.60;99.90
16128;DHT22;8168;49.036;7.690;2022-09-09T15:10:16;19.70;99.90
16128;DHT22;8168;49.036;7.690;2022-09-09T15:12:47;19.70;99.90
16128;DHT22;8168;49.036;7.690;2022-09-09T15:15:18;19.80;99.90
16128;DHT22;8168;49.036;7.690;2022-09-09T15:17:48;19.70;99.90
16128;DHT22;8168;49.036;7.690;2022-09-09T15:20:19;19.70;99.90
16128;DHT22;8168;49.036;7.690;2022-09-09T15:22:49;19.70;99.90
16128;DHT22;8168;49.036;7.690;2022-09-09T15:25:21;19.70;99.90
16128;DHT22;8168;49.036;7.690;2022-09-09T15:27:52;19.70;99.90
16128;DHT22;8168;49.036;7.690;2022-09-09T15:30:22;19.70;99.90
16128;DHT22;8168;49.036;7.690;2022-09-09T15:32:53;19.60;99.90
16128;DHT22;8168;49.036;7.690;2022-09-09T15:35:23;19.60;99.90
16128;DHT22;8168;49.036;7.690;2022-09-09T15:37:54;19.60;99.90
16128;DHT22;8168;49.036;7.690;2022-09-09T15:40:25;19.60;99.90
16128;DHT22;8168;49.036;7.690;2022-09-09T15:42:55;19.50;99.90
16128;DHT22;8168;49.036;7.690;2022-09-09T15:45:26;19.30;99.90
16128;DHT22;8168;49.036;7.690;2022-09-09T15:48:02;19.00;99.90
16128;DHT22;8168;49.036;7.690;2022-09-09T15:50:33;18.80;99.90
16128;DHT22;8168;49.036;7.690;2022-09-09T15:53:04;18.70;99.90
16128;DHT22;8168;49.036;7.690;2022-09-09T15:55:36;18.70;99.90
16128;DHT22;8168;49.036;7.690;2022-09-09T15:58:06;18.60;99.90
16128;DHT22;8168;49.036;7.690;2022-09-09T16:00:38;18.70;99.90
16128;DHT22;8168;49.036;7.690;2022-09-09T16:03:08;18.80;99.90
16128;DHT22;8168;49.036;7.690;2022-09-09T16:05:39;18.90;99.90
16128;DHT22;8168;49.036;7.690;2022-09-09T16:08:10;18.90;99.90
16128;DHT22;8168;49.036;7.690;2022-09-09T16:10:41;19.00;99.90
16128;DHT22;8168;49.036;7.690;2022-09-09T16:13:12;19.00;99.90
16128;DHT22;8168;49.036;7.690;2022-09-09T16:15:43;19.00;99.90
16128;DHT22;8168;49.036;7.690;2022-09-09T16:18:14;19.00;99.90
16128;DHT22;8168;49.036;7.690;2022-09-09T16:20:53;21.50;99.90
16128;DHT22;8168;49.036;7.690;2022-09-09T16:23:24;19.00;99.90
16128;DHT22;8168;49.036;7.690;2022-09-09T16:25:55;19.00;99.90
16128;DHT22;8168;49.036;7.690;2022-09-09T16:28:27;18.40;99.90
16128;DHT22;8168;49.036;7.690;2022-09-09T16:30:58;19.00;99.90
16128;DHT22;8168;49.036;7.690;2022-09-09T16:33:28;18.90;99.90
16128;DHT22;8168;49.036;7.690;2022-09-09T16:36:09;18.80;99.90
16128;DHT22;8168;49.036;7.690;2022-09-09T16:38:41;18.70;99.90
16128;DHT22;8168;49.036;7.690;2022-09-09T16:41:12;18.70;99.90
16128;DHT22;8168;49.036;7.690;2022-09-09T16:43:43;18.70;99.90
16128;DHT22;8168;49.036;7.690;2022-09-09T16:46:18;18.70;99.90
16128;DHT22;8168;49.036;7.690;2022-09-09T16:48:50;18.70;99.90
16128;DHT22;8168;49.036;7.690;2022-09-09T16:51:26;18.70;99.90
16128;DHT22;8168;49.036;7.690;2022-09-09T16:54:03;18.70;99.90
16128;DHT22;8168;49.036;7.690;2022-09-09T16:56:37;18.50;99.90
16128;DHT22;8168;49.036;7.690;2022-09-09T16:59:13;18.50;99.90
16128;DHT22;8168;49.036;7.690;2022-09-09T17:01:46;18.40;99.90
16128;DHT22;8168;49.036;7.690;2022-09-09T17:04:22;18.40;99.90
16128;DHT22;8168;49.036;7.690;2022-09-09T17:06:54;18.50;99.90
16128;DHT22;8168;49.036;7.690;2022-09-09T17:09:26;18.40;99.90
16128;DHT22;8168;49.036;7.690;2022-09-09T17:11:59;18.30;99.90
16128;DHT22;8168;49.036;7.690;2022-09-09T17:14:30;18.30;99.90
16128;DHT22;8168;49.036;7.690;2022-09-09T17:17:01;18.20;99.90
16128;DHT22;8168;49.036;7.690;2022-09-09T17:19:32;18.30;99.90
16128;DHT22;8168;49.036;7.690;2022-09-09T17:22:03;18.30;99.90
16128;DHT22;8168;49.036;7.690;2022-09-09T17:24:34;18.30;99.90
16128;DHT22;8168;49.036;7.690;2022-09-09T17:27:04;18.30;99.90
16128;DHT22;8168;49.036;7.690;2022-09-09T17:29:35;18.20;99.90
16128;DHT22;8168;49.036;7.690;2022-09-09T17:32:08;18.30;99.90
16128;DHT22;8168;49.036;7.690;2022-09-09T17:34:39;18.20;99.90
16128;DHT22;8168;49.036;7.690;2022-09-09T17:37:10;18.20;99.90
16128;DHT22;8168;49.036;7.690;2022-09-09T17:39:40;18.10;99.90
16128;DHT22;8168;49.036;7.690;2022-09-09T17:42:11;18.00;99.90
16128;DHT22;8168;49.036;7.690;2022-09-09T17:44:41;18.00;99.90
16128;DHT22;8168;49.036;7.690;2022-09-09T17:47:12;18.00;99.90
16128;DHT22;8168;49.036;7.690;2022-09-09T17:49:43;18.00;99.90
16128;DHT22;8168;49.036;7.690;2022-09-09T17:52:13;17.90;99.90
16128;DHT22;8168;49.036;7.690;2022-09-09T17:54:46;17.90;99.90
16128;DHT22;8168;49.036;7.690;2022-09-09T17:57:16;17.90;99.90
16128;DHT22;8168;49.036;7.690;2022-09-09T17:59:52;17.90;99.90
16128;DHT22;8168;49.036;7.690;2022-09-09T18:02:23;17.90;99.90
16128;DHT22;8168;49.036;7.690;2022-09-09T18:04:53;17.90;99.90
16128;DHT22;8168;49.036;7.690;2022-09-09T18:07:24;17.90;99.90
16128;DHT22;8168;49.036;7.690;2022-09-09T18:09:55;18.00;99.90
16128;DHT22;8168;49.036;7.690;2022-09-09T18:12:26;17.90;99.90
16128;DHT22;8168;49.036;7.690;2022-09-09T18:14:57;17.90;99.90
16128;DHT22;8168;49.036;7.690;2022-09-09T18:17:30;17.90;99.90
16128;DHT22;8168;49.036;7.690;2022-09-09T18:20:01;17.80;99.90
16128;DHT22;8168;49.036;7.690;2022-09-09T18:22:32;17.70;99.90
16128;DHT22;8168;49.036;7.690;2022-09-09T18:25:03;17.60;99.90
16128;DHT22;8168;49.036;7.690;2022-09-09T18:27:35;17.60;99.90